createdAt,value
2018-09-28T00:01:33.902Z,3.13
2018-09-28T00:04:02.346Z,3.67
2018-09-28T00:06:30.874Z,4.33
2018-09-28T00:08:59.352Z,4.07
2018-09-28T00:11:27.927Z,3.70
2018-09-28T00:13:56.438Z,3.20
2018-09-28T00:16:24.885Z,3.00
2018-09-28T00:18:53.283Z,3.67
2018-09-28T00:21:21.808Z,3.90
2018-09-28T00:23:50.283Z,4.33
2018-09-28T00:26:18.711Z,3.90
2018-09-28T00:28:47.189Z,4.20
2018-09-28T00:31:15.651Z,3.60
2018-09-28T00:33:44.263Z,2.90
2018-09-28T00:36:12.710Z,3.57
2018-09-28T00:38:41.144Z,3.23
2018-09-28T00:41:09.520Z,3.80
2018-09-28T00:43:37.939Z,2.93
2018-09-28T00:46:06.374Z,2.83
2018-09-28T00:48:34.755Z,3.70
2018-09-28T00:51:03.335Z,3.47
2018-09-28T00:53:31.779Z,3.73
2018-09-28T00:56:00.187Z,3.27
2018-09-28T00:58:28.643Z,3.40
2018-09-28T01:00:57.163Z,3.50
2018-09-28T01:03:25.666Z,3.40
2018-09-28T01:05:54.828Z,2.97
2018-09-28T01:08:23.407Z,3.30
2018-09-28T01:10:51.868Z,3.33
2018-09-28T01:13:20.348Z,3.20
2018-09-28T01:15:48.850Z,3.03
2018-09-28T01:18:17.295Z,2.97
2018-09-28T01:20:45.742Z,3.40
2018-09-28T01:23:14.215Z,4.30
2018-09-28T01:25:42.633Z,3.60
2018-09-28T01:28:11.075Z,3.83
2018-09-28T01:30:39.486Z,3.73
2018-09-28T01:33:07.917Z,3.30
2018-09-28T01:35:36.491Z,3.00
2018-09-28T01:38:04.980Z,3.73
2018-09-28T01:40:33.470Z,2.67
2018-09-28T01:43:01.924Z,3.43
2018-09-28T01:45:30.387Z,3.63
2018-09-28T01:47:58.782Z,3.07
2018-09-28T01:50:27.223Z,3.20
2018-09-28T01:52:56.083Z,2.93
2018-09-28T01:55:24.619Z,2.90
2018-09-28T01:57:53.159Z,3.10
2018-09-28T02:00:21.639Z,3.20
2018-09-28T02:02:50.134Z,3.20
2018-09-28T02:05:18.923Z,3.10
2018-09-28T02:07:47.415Z,3.17
2018-09-28T02:10:15.819Z,3.20
2018-09-28T02:12:44.336Z,3.87
2018-09-28T02:15:12.836Z,2.63
2018-09-28T02:17:41.278Z,3.20
2018-09-28T02:20:09.727Z,2.93
2018-09-28T02:22:38.198Z,2.97
2018-09-28T02:25:06.706Z,3.40
2018-09-28T02:27:35.211Z,3.10
2018-09-28T02:30:03.699Z,3.23
2018-09-28T02:32:32.162Z,3.50
2018-09-28T02:35:00.631Z,3.13
2018-09-28T02:37:29.106Z,3.30
2018-09-28T02:39:57.567Z,3.53
2018-09-28T02:42:26.002Z,4.03
2018-09-28T02:44:54.531Z,3.33
2018-09-28T02:47:23.019Z,3.20
2018-09-28T02:49:51.563Z,2.47
2018-09-28T02:52:19.958Z,3.07
2018-09-28T02:54:48.482Z,3.13
2018-09-28T02:57:17.016Z,3.23
2018-09-28T02:59:45.486Z,3.20
2018-09-28T03:02:13.947Z,2.80
2018-09-28T03:04:42.367Z,3.60
2018-09-28T03:07:10.871Z,3.60
2018-09-28T03:09:39.263Z,3.80
2018-09-28T03:12:08.030Z,3.87
2018-09-28T03:14:36.435Z,3.63
2018-09-28T03:17:04.931Z,3.60
2018-09-28T03:19:33.450Z,3.10
2018-09-28T03:22:01.962Z,3.57
2018-09-28T03:24:30.462Z,3.40
2018-09-28T03:26:58.943Z,3.67
2018-09-28T03:29:27.416Z,3.00
2018-09-28T03:31:55.838Z,3.17
2018-09-28T03:34:24.302Z,4.20
2018-09-28T03:36:52.715Z,3.10
2018-09-28T03:39:21.115Z,3.10
2018-09-28T03:41:49.527Z,3.47
2018-09-28T03:44:17.971Z,3.80
2018-09-28T03:46:46.467Z,3.13
2018-09-28T03:49:14.915Z,3.47
2018-09-28T03:51:43.331Z,4.03
2018-09-28T03:54:11.727Z,3.93
2018-09-28T03:56:40.250Z,4.10
2018-09-28T03:59:08.824Z,3.70
2018-09-28T04:01:37.247Z,4.20
2018-09-28T04:04:05.755Z,4.33
2018-09-28T04:06:34.214Z,3.40
2018-09-28T04:09:02.727Z,3.10
2018-09-28T04:11:31.211Z,3.27
2018-09-28T04:13:59.686Z,3.80
2018-09-28T04:16:28.114Z,3.60
2018-09-28T04:18:56.619Z,4.43
2018-09-28T04:21:25.252Z,3.63
2018-09-28T04:23:53.759Z,3.20
2018-09-28T04:26:23.041Z,4.23
2018-09-28T04:28:51.461Z,3.90
2018-09-28T04:31:20.215Z,3.33
2018-09-28T04:33:48.737Z,3.73
2018-09-28T04:36:17.251Z,2.87
2018-09-28T04:38:45.763Z,3.40
2018-09-28T04:41:14.315Z,3.70
2018-09-28T04:43:42.830Z,3.40
2018-09-28T04:46:11.582Z,3.47
2018-09-28T04:48:40.301Z,2.93
2018-09-28T04:51:08.882Z,2.93
2018-09-28T04:53:37.310Z,2.83
2018-09-28T04:56:05.986Z,3.87
2018-09-28T04:58:34.506Z,4.53
2018-09-28T05:01:02.991Z,3.87
2018-09-28T05:03:31.520Z,4.37
2018-09-28T05:05:59.930Z,4.40
2018-09-28T05:08:28.398Z,4.00
2018-09-28T05:10:56.939Z,3.83
2018-09-28T05:13:25.387Z,3.80
2018-09-28T05:15:53.843Z,4.90
2018-09-28T05:18:22.627Z,4.40
2018-09-28T05:20:51.067Z,4.83
2018-09-28T05:23:19.571Z,4.47
2018-09-28T05:25:48.203Z,4.10
2018-09-28T05:28:16.627Z,4.40
2018-09-28T05:30:45.484Z,4.07
2018-09-28T05:33:13.899Z,3.63
2018-09-28T05:35:42.639Z,3.77
2018-09-28T05:38:11.590Z,5.53
2018-09-28T05:40:40.598Z,4.30
2018-09-28T05:43:09.363Z,3.80
2018-09-28T05:45:37.842Z,4.60
2018-09-28T05:48:05.871Z,4.43
2018-09-28T05:50:34.304Z,4.27
2018-09-28T05:53:02.820Z,5.07
2018-09-28T05:55:31.563Z,4.50
2018-09-28T05:58:05.301Z,5.17
2018-09-28T06:00:39.086Z,4.80
2018-09-28T06:03:14.419Z,4.40
2018-09-28T06:05:44.351Z,4.10
2018-09-28T06:08:13.570Z,4.93
2018-09-28T06:10:42.150Z,4.60
2018-09-28T06:13:10.706Z,4.63
2018-09-28T06:15:39.270Z,4.80
2018-09-28T06:18:07.699Z,4.93
2018-09-28T06:20:36.372Z,5.23
2018-09-28T06:23:05.351Z,5.20
2018-09-28T06:25:33.982Z,5.07
2018-09-28T06:28:02.780Z,4.90
2018-09-28T06:30:31.291Z,7.50
2018-09-28T06:32:59.813Z,5.90
2018-09-28T06:35:28.474Z,6.20
2018-09-28T06:37:56.922Z,6.03
2018-09-28T06:40:25.331Z,6.30
2018-09-28T06:42:53.938Z,6.13
2018-09-28T06:45:22.631Z,8.33
2018-09-28T06:47:51.082Z,6.67
2018-09-28T06:50:19.571Z,6.83
2018-09-28T06:52:48.055Z,5.93
2018-09-28T06:55:16.571Z,6.10
2018-09-28T06:57:45.054Z,6.87
2018-09-28T07:00:13.768Z,7.20
2018-09-28T07:02:42.230Z,6.27
2018-09-28T07:05:11.051Z,7.70
2018-09-28T07:07:39.467Z,7.20
2018-09-28T07:10:08.359Z,7.20
2018-09-28T07:12:36.995Z,7.97
2018-09-28T07:15:06.191Z,6.67
2018-09-28T07:17:34.600Z,6.60
2018-09-28T07:20:03.321Z,6.47
2018-09-28T07:22:31.739Z,6.30
2018-09-28T07:25:00.200Z,6.87
2018-09-28T07:27:28.610Z,6.73
2018-09-28T07:29:57.222Z,6.87
2018-09-28T07:32:25.627Z,7.10
2018-09-28T07:34:54.382Z,6.10
2018-09-28T07:37:22.860Z,7.90
2018-09-28T07:39:51.243Z,6.60
2018-09-28T07:42:19.958Z,6.37
2018-09-28T07:44:48.323Z,6.60
2018-09-28T07:47:16.727Z,7.20
2018-09-28T07:49:45.177Z,8.63
2018-09-28T07:52:13.651Z,10.33
2018-09-28T07:54:42.090Z,8.17
2018-09-28T07:57:10.543Z,9.20
2018-09-28T07:59:39.044Z,8.60
2018-09-28T08:02:08.302Z,8.03
2018-09-28T08:04:36.850Z,9.47
2018-09-28T08:07:05.315Z,7.67
2018-09-28T08:09:33.829Z,9.97
2018-09-28T08:12:02.379Z,8.87
2018-09-28T08:14:30.893Z,10.80
2018-09-28T08:16:59.298Z,10.17
2018-09-28T08:19:27.931Z,11.03
2018-09-28T08:21:56.398Z,11.10
2018-09-28T08:24:24.810Z,13.23
2018-09-28T08:26:53.383Z,13.43
2018-09-28T08:29:21.894Z,12.00
2018-09-28T08:31:50.311Z,14.07
2018-09-28T08:34:18.887Z,13.47
2018-09-28T08:36:47.340Z,14.87
2018-09-28T08:39:15.851Z,15.40
2018-09-28T08:41:44.665Z,16.43
2018-09-28T08:44:13.155Z,15.20
2018-09-28T08:46:41.543Z,14.30
2018-09-28T08:49:10.372Z,15.73
2018-09-28T08:51:38.815Z,15.47
2018-09-28T08:54:07.468Z,14.50
2018-09-28T08:56:36.087Z,14.80
2018-09-28T08:59:04.642Z,15.30
2018-09-28T09:01:33.235Z,15.47
2018-09-28T09:04:02.284Z,14.53
2018-09-28T09:06:30.850Z,15.20
2018-09-28T09:08:59.303Z,16.23
2018-09-28T09:11:28.060Z,16.03
2018-09-28T09:13:56.486Z,14.17
2018-09-28T09:16:25.352Z,16.00
2018-09-28T09:18:53.855Z,15.27
2018-09-28T09:21:22.308Z,16.03
2018-09-28T09:23:50.834Z,14.90
2018-09-28T09:26:19.313Z,15.00
2018-09-28T09:28:47.755Z,15.80
2018-09-28T09:31:16.195Z,13.87
2018-09-28T09:33:45.071Z,14.80
2018-09-28T09:36:13.579Z,15.60
2018-09-28T09:38:42.127Z,16.20
2018-09-28T09:41:10.967Z,15.40
2018-09-28T09:43:39.461Z,12.37
2018-09-28T09:46:07.943Z,13.97
2018-09-28T09:48:36.659Z,14.83
2018-09-28T09:51:05.166Z,14.50
2018-09-28T09:53:33.667Z,16.07
2018-09-28T09:56:02.154Z,14.97
2018-09-28T09:58:30.627Z,15.33
2018-09-28T10:01:06.335Z,15.13
2018-09-28T10:03:40.498Z,16.27
2018-09-28T10:06:10.390Z,16.20
2018-09-28T10:08:38.959Z,14.60
2018-09-28T10:11:07.594Z,14.20
2018-09-28T10:13:36.201Z,14.60
2018-09-28T10:16:04.854Z,14.17
2018-09-28T10:18:33.356Z,14.57
2018-09-28T10:21:02.191Z,14.00
2018-09-28T10:23:30.657Z,12.63
2018-09-28T10:25:59.153Z,14.57
2018-09-28T10:28:27.895Z,11.60
2018-09-28T10:30:56.398Z,12.07
2018-09-28T10:33:24.877Z,12.60
2018-09-28T10:35:53.451Z,11.90
2018-09-28T10:38:21.916Z,11.40
2018-09-28T10:40:50.424Z,12.87
2018-09-28T10:43:19.246Z,11.20
2018-09-28T10:45:47.784Z,9.97
2018-09-28T10:48:16.294Z,12.23
2018-09-28T10:50:44.794Z,11.30
2018-09-28T10:53:13.394Z,11.60
2018-09-28T10:55:41.775Z,10.70
2018-09-28T10:58:10.270Z,9.40
2018-09-28T11:00:38.726Z,10.00
2018-09-28T11:03:07.251Z,8.83
2018-09-28T11:05:35.839Z,10.53
2018-09-28T11:08:04.322Z,9.33
2018-09-28T11:10:32.784Z,9.53
2018-09-28T11:13:01.465Z,11.60
2018-09-28T11:15:30.012Z,8.73
2018-09-28T11:17:58.455Z,9.97
2018-09-28T11:20:26.994Z,9.40
2018-09-28T11:22:55.468Z,9.03
2018-09-28T11:25:24.015Z,9.93
2018-09-28T11:27:53.730Z,9.07
2018-09-28T11:30:22.346Z,9.80
2018-09-28T11:32:51.015Z,8.70
2018-09-28T11:35:19.663Z,7.30
2018-09-28T11:37:48.282Z,8.00
2018-09-28T11:40:17.294Z,7.00
2018-09-28T11:42:48.527Z,7.53
2018-09-28T11:45:20.552Z,7.03
2018-09-28T11:47:50.126Z,6.90
2018-09-28T11:50:18.700Z,8.20
2018-09-28T11:52:47.502Z,6.90
2018-09-28T11:55:16.003Z,6.87
2018-09-28T11:57:44.611Z,6.50
2018-09-28T12:00:13.083Z,6.40
2018-09-28T12:02:41.607Z,6.50
2018-09-28T12:05:10.196Z,5.20
2018-09-28T12:07:38.594Z,5.50
2018-09-28T12:10:07.191Z,4.80
2018-09-28T12:12:36.389Z,3.70
2018-09-28T12:15:05.047Z,4.17
2018-09-28T12:17:33.572Z,5.10
2018-09-28T12:20:02.023Z,5.10
2018-09-28T12:22:30.492Z,5.50
2018-09-28T12:24:58.894Z,5.47
2018-09-28T12:27:27.510Z,5.07
2018-09-28T12:29:55.884Z,5.50
2018-09-28T12:32:24.424Z,4.93
2018-09-28T12:34:52.870Z,4.50
2018-09-28T12:37:21.523Z,4.20
2018-09-28T12:39:50.169Z,4.83
2018-09-28T12:42:19.741Z,5.03
2018-09-28T12:44:48.315Z,3.57
2018-09-28T12:47:16.759Z,3.97
2018-09-28T12:49:45.282Z,3.80
2018-09-28T12:52:13.940Z,3.33
2018-09-28T12:54:42.438Z,4.13
2018-09-28T12:57:10.859Z,4.90
2018-09-28T12:59:39.336Z,5.40
2018-09-28T13:02:07.947Z,6.10
2018-09-28T13:04:36.354Z,4.10
2018-09-28T13:07:04.815Z,4.13
2018-09-28T13:09:33.339Z,4.70
2018-09-28T13:12:01.979Z,6.63
2018-09-28T13:14:30.503Z,6.60
2018-09-28T13:16:58.959Z,5.03
2018-09-28T13:19:27.529Z,5.50
2018-09-28T13:21:56.003Z,5.03
2018-09-28T13:24:24.877Z,4.63
2018-09-28T13:26:53.294Z,5.20
2018-09-28T13:29:22.366Z,3.40
2018-09-28T13:31:51.060Z,3.70
2018-09-28T13:34:19.640Z,3.83
2018-09-28T13:36:48.203Z,4.70
2018-09-28T13:39:16.649Z,4.07
2018-09-28T13:41:45.069Z,3.50
2018-09-28T13:44:13.657Z,3.77
2018-09-28T13:46:42.129Z,2.97
2018-09-28T13:49:10.555Z,4.47
2018-09-28T13:51:39.177Z,4.70
2018-09-28T13:54:08.775Z,4.40
2018-09-28T13:56:37.382Z,3.00
2018-09-28T13:59:05.923Z,3.90
2018-09-28T14:01:35.668Z,4.30
2018-09-28T14:04:04.187Z,4.50
2018-09-28T14:06:32.698Z,4.87
2018-09-28T14:09:01.130Z,4.20
2018-09-28T14:11:34.709Z,4.77
2018-09-28T14:14:03.310Z,4.33
2018-09-28T14:16:31.782Z,4.03
2018-09-28T14:19:01.125Z,5.70
2018-09-28T14:21:29.705Z,5.03
2018-09-28T14:23:58.171Z,4.90
2018-09-28T14:26:26.826Z,5.10
2018-09-28T14:29:05.325Z,3.07
2018-09-28T14:31:33.763Z,3.40
2018-09-28T14:34:02.367Z,4.23
2018-09-28T14:36:30.918Z,4.50
2018-09-28T14:38:59.376Z,4.40
2018-09-28T14:41:28.179Z,4.40
2018-09-28T14:43:56.707Z,4.10
2018-09-28T14:46:25.201Z,4.20
2018-09-28T14:48:53.749Z,3.50
2018-09-28T14:51:22.119Z,3.70
2018-09-28T14:53:50.635Z,3.80
2018-09-28T14:56:19.302Z,3.40
2018-09-28T14:58:47.826Z,4.17
2018-09-28T15:01:16.436Z,5.80
2018-09-28T15:03:44.763Z,5.37
2018-09-28T15:06:13.223Z,5.50
2018-09-28T15:08:41.797Z,7.40
2018-09-28T15:11:10.431Z,7.50
2018-09-28T15:13:38.967Z,7.03
2018-09-28T15:16:07.580Z,9.07
2018-09-28T15:18:36.214Z,7.93
2018-09-28T15:21:04.795Z,10.47
2018-09-28T15:23:33.264Z,10.83
2018-09-28T15:26:01.834Z,10.53
2018-09-28T15:28:30.304Z,11.33
2018-09-28T15:30:58.815Z,12.73
2018-09-28T15:33:27.308Z,11.67
2018-09-28T15:35:55.971Z,11.67
2018-09-28T15:38:24.517Z,11.23
2018-09-28T15:40:53.748Z,11.03
2018-09-28T15:43:23.447Z,11.50
2018-09-28T15:45:51.920Z,12.90
2018-09-28T15:48:20.474Z,11.97
2018-09-28T15:50:48.971Z,11.37
2018-09-28T15:53:17.674Z,10.43
2018-09-28T15:55:46.230Z,11.27
2018-09-28T15:58:14.690Z,9.93
2018-09-28T16:00:43.202Z,7.30
2018-09-28T16:03:11.805Z,7.47
2018-09-28T16:05:40.391Z,7.53
2018-09-28T16:08:08.988Z,6.17
2018-09-28T16:10:37.599Z,4.43
2018-09-28T16:13:06.159Z,4.40
2018-09-28T16:15:34.891Z,2.97
2018-09-28T16:18:04.547Z,3.07
2018-09-28T16:20:34.527Z,2.57
2018-09-28T16:23:02.955Z,2.33
2018-09-28T16:25:31.666Z,2.10
2018-09-28T16:28:00.654Z,2.40
2018-09-28T16:30:29.149Z,2.97
2018-09-28T16:32:57.802Z,2.90
2018-09-28T16:35:26.248Z,3.33
2018-09-28T16:37:55.719Z,3.00
2018-09-28T16:40:24.577Z,3.33
2018-09-28T16:42:53.303Z,3.20
2018-09-28T16:45:22.875Z,3.80
2018-09-28T16:47:51.393Z,3.23
2018-09-28T16:50:19.909Z,3.40
2018-09-28T16:52:48.423Z,2.13
2018-09-28T16:55:17.889Z,2.63
2018-09-28T16:57:46.533Z,1.80
2018-09-28T17:00:14.997Z,3.00
2018-09-28T17:02:43.601Z,2.10
2018-09-28T17:05:13.004Z,3.53
2018-09-28T17:07:43.097Z,2.60
2018-09-28T17:10:12.061Z,3.20
2018-09-28T17:12:40.829Z,2.37
2018-09-28T17:15:09.746Z,1.60
2018-09-28T17:17:38.299Z,2.10
2018-09-28T17:20:07.060Z,1.40
2018-09-28T17:22:35.763Z,2.03
2018-09-28T17:25:04.427Z,1.40
2018-09-28T17:27:33.021Z,1.90
2018-09-28T17:30:01.711Z,1.80
2018-09-28T17:32:30.209Z,1.50
2018-09-28T17:34:58.792Z,2.30
2018-09-28T17:37:27.249Z,1.47
2018-09-28T17:39:56.572Z,1.70
2018-09-28T17:42:25.411Z,1.93
2018-09-28T17:44:53.983Z,2.17
2018-09-28T17:47:22.477Z,2.10
2018-09-28T17:49:51.216Z,1.23
2018-09-28T17:52:20.851Z,1.50
2018-09-28T17:54:49.380Z,2.60
2018-09-28T17:57:18.066Z,1.30
2018-09-28T17:59:47.535Z,1.30
2018-09-28T18:02:16.059Z,1.10
2018-09-28T18:04:44.543Z,1.97
2018-09-28T18:07:13.223Z,1.93
2018-09-28T18:09:42.075Z,1.70
2018-09-28T18:12:10.663Z,1.50
2018-09-28T18:14:39.343Z,1.60
2018-09-28T18:17:07.984Z,2.10
2018-09-28T18:19:36.516Z,1.30
2018-09-28T18:22:05.541Z,1.77
2018-09-28T18:24:34.720Z,1.63
2018-09-28T18:27:03.343Z,1.27
2018-09-28T18:29:31.890Z,1.50
2018-09-28T18:32:00.478Z,1.47
2018-09-28T18:34:29.045Z,1.70
2018-09-28T18:36:58.169Z,1.50
2018-09-28T18:39:27.075Z,1.30
2018-09-28T18:41:55.972Z,1.27
2018-09-28T18:44:24.670Z,1.00
2018-09-28T18:46:53.182Z,1.27
2018-09-28T18:49:21.858Z,1.30
2018-09-28T18:51:50.487Z,1.30
2018-09-28T18:54:19.115Z,1.30
2018-09-28T18:56:47.655Z,1.83
2018-09-28T18:59:16.191Z,1.20
2018-09-28T19:01:44.932Z,1.37
2018-09-28T19:04:13.571Z,1.83
2018-09-28T19:06:42.384Z,1.73
2018-09-28T19:09:12.473Z,1.10
2018-09-28T19:11:42.409Z,1.10
2018-09-28T19:14:11.593Z,1.50
2018-09-28T19:16:40.167Z,1.70
2018-09-28T19:19:08.921Z,1.27
2018-09-28T19:21:39.142Z,1.70
2018-09-28T19:24:08.153Z,1.87
2018-09-28T19:26:36.771Z,1.40
2018-09-28T19:29:05.411Z,1.00
2018-09-28T19:31:34.121Z,1.50
2018-09-28T19:34:02.692Z,1.20
2018-09-28T19:36:31.411Z,1.20
2018-09-28T19:39:00.042Z,1.57
2018-09-28T19:41:29.550Z,1.63
2018-09-28T19:43:58.098Z,1.80
2018-09-28T19:46:26.650Z,1.00
2018-09-28T19:48:55.131Z,1.77
2018-09-28T19:51:23.758Z,1.83
2018-09-28T19:53:52.851Z,1.53
2018-09-28T19:56:22.381Z,1.20
2018-09-28T19:58:51.561Z,1.53
2018-09-28T20:01:20.684Z,1.50
2018-09-28T20:03:49.227Z,1.57
2018-09-28T20:06:18.040Z,1.00
2018-09-28T20:08:46.543Z,1.33
2018-09-28T20:11:15.070Z,1.33
2018-09-28T20:13:44.338Z,2.37
2018-09-28T20:16:13.096Z,1.47
2018-09-28T20:18:41.952Z,2.47
2018-09-28T20:21:10.619Z,1.70
2018-09-28T20:23:40.586Z,1.53
2018-09-28T20:26:09.590Z,1.57
2018-09-28T20:28:39.215Z,1.53
2018-09-28T20:31:08.290Z,1.93
2018-09-28T20:33:36.764Z,1.97
2018-09-28T20:36:05.405Z,1.53
2018-09-28T20:38:35.353Z,3.03
2018-09-28T20:41:03.847Z,1.20
2018-09-28T20:43:33.413Z,2.47
2018-09-28T20:46:01.891Z,1.73
2018-09-28T20:48:30.479Z,3.07
2018-09-28T20:50:59.219Z,1.73
2018-09-28T20:53:28.264Z,1.93
2018-09-28T20:55:56.910Z,1.60
2018-09-28T20:58:26.280Z,2.10
2018-09-28T21:00:54.814Z,2.40
2018-09-28T21:03:23.240Z,2.30
2018-09-28T21:05:52.958Z,1.90
2018-09-28T21:08:21.647Z,2.40
2018-09-28T21:10:50.749Z,2.50
2018-09-28T21:13:19.364Z,2.10
2018-09-28T21:15:47.907Z,1.57
2018-09-28T21:18:16.443Z,1.80
2018-09-28T21:20:45.047Z,3.80
2018-09-28T21:23:13.766Z,1.60
2018-09-28T21:25:42.399Z,1.83
2018-09-28T21:28:10.931Z,1.23
2018-09-28T21:30:39.887Z,1.37
2018-09-28T21:33:10.052Z,1.60
2018-09-28T21:35:38.704Z,1.70
2018-09-28T21:38:07.481Z,2.07
2018-09-28T21:40:35.962Z,1.50
2018-09-28T21:43:04.521Z,1.80
2018-09-28T21:45:33.662Z,1.50
2018-09-28T21:48:02.088Z,1.80
2018-09-28T21:50:30.603Z,3.00
2018-09-28T21:52:59.063Z,2.20
2018-09-28T21:55:27.688Z,1.87
2018-09-28T21:57:56.140Z,2.43
2018-09-28T22:00:24.931Z,1.50
2018-09-28T22:02:53.506Z,1.50
2018-09-28T22:05:22.040Z,1.97
2018-09-28T22:07:50.491Z,1.80
2018-09-28T22:10:19.199Z,1.00
2018-09-28T22:12:47.711Z,1.70
2018-09-28T22:15:16.131Z,1.20
2018-09-28T22:17:44.761Z,2.17
2018-09-28T22:20:13.222Z,1.27
2018-09-28T22:22:41.701Z,1.87
2018-09-28T22:25:10.516Z,2.13
2018-09-28T22:27:39.048Z,1.23
2018-09-28T22:30:07.627Z,1.90
2018-09-28T22:32:36.174Z,1.00
2018-09-28T22:35:04.857Z,2.20
2018-09-28T22:37:33.444Z,1.80
2018-09-28T22:40:01.923Z,2.23
2018-09-28T22:42:30.459Z,1.47
2018-09-28T22:44:58.991Z,3.90
2018-09-28T22:47:27.479Z,1.60
2018-09-28T22:49:56.024Z,3.17
2018-09-28T22:52:24.571Z,2.20
2018-09-28T22:54:53.053Z,1.83
2018-09-28T22:57:21.579Z,1.13
2018-09-28T22:59:50.035Z,1.53
2018-09-28T23:02:18.539Z,1.50
2018-09-28T23:04:47.066Z,1.60
2018-09-28T23:07:15.535Z,1.20
2018-09-28T23:09:44.042Z,1.70
2018-09-28T23:12:12.571Z,1.43
2018-09-28T23:14:40.998Z,1.53
2018-09-28T23:17:09.515Z,1.07
2018-09-28T23:19:38.159Z,3.40
2018-09-28T23:22:06.776Z,1.00
2018-09-28T23:24:35.312Z,1.87
2018-09-28T23:27:03.767Z,1.20
2018-09-28T23:29:32.322Z,1.40
2018-09-28T23:32:00.719Z,1.30
2018-09-28T23:34:29.180Z,2.80
2018-09-28T23:36:57.585Z,0.77
2018-09-28T23:39:26.054Z,1.10
2018-09-28T23:41:54.564Z,1.00
2018-09-28T23:44:23.002Z,1.67
2018-09-28T23:46:51.400Z,1.73
2018-09-28T23:49:19.900Z,1.27
2018-09-28T23:51:48.347Z,1.13
2018-09-28T23:54:16.815Z,0.97
2018-09-28T23:56:45.324Z,1.40
2018-09-28T23:59:13.798Z,0.93
